sensor_id;sensor_type;location;lat;lon;timestamp;P1;durP1;ratioP1;P2;durP2;ratioP2
74630;SDS011;63138;55.082;38.804;2023-10-31T00:01:52;6.88;;;5.28;;
74630;SDS011;63138;55.082;38.804;2023-10-31T00:04:19;6.57;;;4.85;;
74630;SDS011;63138;55.082;38.804;2023-10-31T00:06:44;5.63;;;5.07;;
74630;SDS011;63138;55.082;38.804;2023-10-31T00:09:10;10.77;;;4.88;;
74630;SDS011;63138;55.082;38.804;2023-10-31T00:11:36;6.95;;;4.28;;
74630;SDS011;63138;55.082;38.804;2023-10-31T00:14:03;7.17;;;4.17;;
74630;SDS011;63138;55.082;38.804;2023-10-31T00:16:28;8.27;;;5.10;;
74630;SDS011;63138;55.082;38.804;2023-10-31T00:18:54;8.35;;;5.18;;
74630;SDS011;63138;55.082;38.804;2023-10-31T00:21:21;6.53;;;4.82;;
74630;SDS011;63138;55.082;38.804;2023-10-31T00:23:47;7.27;;;5.03;;
74630;SDS011;63138;55.082;38.804;2023-10-31T00:26:14;7.72;;;5.15;;
74630;SDS011;63138;55.082;38.804;2023-10-31T00:28:47;6.60;;;5.30;;
74630;SDS011;63138;55.082;38.804;2023-10-31T00:31:13;7.30;;;4.80;;
74630;SDS011;63138;55.082;38.804;2023-10-31T00:33:39;7.53;;;5.20;;
74630;SDS011;63138;55.082;38.804;2023-10-31T00:36:06;7.95;;;4.85;;
74630;SDS011;63138;55.082;38.804;2023-10-31T00:38:33;7.85;;;5.35;;
74630;SDS011;63138;55.082;38.804;2023-10-31T00:40:59;7.20;;;5.97;;
74630;SDS011;63138;55.082;38.804;2023-10-31T00:43:25;9.30;;;5.17;;
74630;SDS011;63138;55.082;38.804;2023-10-31T00:45:51;8.50;;;4.97;;
74630;SDS011;63138;55.082;38.804;2023-10-31T00:48:18;8.02;;;4.95;;
74630;SDS011;63138;55.082;38.804;2023-10-31T00:50:44;8.60;;;4.80;;
74630;SDS011;63138;55.082;38.804;2023-10-31T00:53:10;6.55;;;4.57;;
74630;SDS011;63138;55.082;38.804;2023-10-31T00:55:36;5.93;;;4.93;;
74630;SDS011;63138;55.082;38.804;2023-10-31T00:58:03;6.78;;;4.75;;
74630;SDS011;63138;55.082;38.804;2023-10-31T01:00:28;8.73;;;4.53;;
74630;SDS011;63138;55.082;38.804;2023-10-31T01:02:55;7.13;;;5.28;;
74630;SDS011;63138;55.082;38.804;2023-10-31T01:05:21;5.63;;;4.77;;
74630;SDS011;63138;55.082;38.804;2023-10-31T01:07:47;6.20;;;4.95;;
74630;SDS011;63138;55.082;38.804;2023-10-31T01:10:13;10.30;;;5.10;;
74630;SDS011;63138;55.082;38.804;2023-10-31T01:12:38;9.13;;;5.00;;
74630;SDS011;63138;55.082;38.804;2023-10-31T01:15:04;10.32;;;5.07;;
74630;SDS011;63138;55.082;38.804;2023-10-31T01:17:31;9.48;;;5.85;;
74630;SDS011;63138;55.082;38.804;2023-10-31T01:20:15;8.67;;;5.53;;
74630;SDS011;63138;55.082;38.804;2023-10-31T01:22:41;8.60;;;5.28;;
74630;SDS011;63138;55.082;38.804;2023-10-31T01:25:07;8.48;;;5.72;;
74630;SDS011;63138;55.082;38.804;2023-10-31T01:27:33;8.40;;;6.03;;
74630;SDS011;63138;55.082;38.804;2023-10-31T01:29:58;10.35;;;5.13;;
74630;SDS011;63138;55.082;38.804;2023-10-31T01:32:24;8.10;;;5.72;;
74630;SDS011;63138;55.082;38.804;2023-10-31T01:34:50;6.77;;;4.57;;
74630;SDS011;63138;55.082;38.804;2023-10-31T01:37:16;8.07;;;5.72;;
74630;SDS011;63138;55.082;38.804;2023-10-31T01:39:44;7.65;;;5.95;;
74630;SDS011;63138;55.082;38.804;2023-10-31T01:42:13;8.98;;;6.15;;
74630;SDS011;63138;55.082;38.804;2023-10-31T01:44:40;10.73;;;6.40;;
74630;SDS011;63138;55.082;38.804;2023-10-31T01:47:06;9.52;;;6.50;;
74630;SDS011;63138;55.082;38.804;2023-10-31T01:49:36;15.70;;;6.28;;
74630;SDS011;63138;55.082;38.804;2023-10-31T01:52:04;13.52;;;6.50;;
74630;SDS011;63138;55.082;38.804;2023-10-31T01:54:35;13.48;;;6.55;;
74630;SDS011;63138;55.082;38.804;2023-10-31T01:57:01;9.47;;;6.43;;
74630;SDS011;63138;55.082;38.804;2023-10-31T01:59:30;8.15;;;6.40;;
74630;SDS011;63138;55.082;38.804;2023-10-31T02:01:56;7.57;;;6.05;;
74630;SDS011;63138;55.082;38.804;2023-10-31T02:04:23;8.95;;;6.22;;
74630;SDS011;63138;55.082;38.804;2023-10-31T02:06:50;9.52;;;6.15;;
74630;SDS011;63138;55.082;38.804;2023-10-31T02:09:18;8.70;;;6.10;;
74630;SDS011;63138;55.082;38.804;2023-10-31T02:11:50;8.52;;;6.15;;
74630;SDS011;63138;55.082;38.804;2023-10-31T02:14:16;9.30;;;7.32;;
74630;SDS011;63138;55.082;38.804;2023-10-31T02:16:42;7.88;;;6.53;;
74630;SDS011;63138;55.082;38.804;2023-10-31T02:19:08;10.30;;;6.80;;
74630;SDS011;63138;55.082;38.804;2023-10-31T02:21:39;10.07;;;7.00;;
74630;SDS011;63138;55.082;38.804;2023-10-31T02:24:06;12.65;;;7.50;;
74630;SDS011;63138;55.082;38.804;2023-10-31T02:26:33;10.10;;;7.25;;
74630;SDS011;63138;55.082;38.804;2023-10-31T02:29:00;11.23;;;7.07;;
74630;SDS011;63138;55.082;38.804;2023-10-31T02:31:27;11.43;;;7.53;;
74630;SDS011;63138;55.082;38.804;2023-10-31T02:33:53;10.27;;;7.55;;
74630;SDS011;63138;55.082;38.804;2023-10-31T02:36:19;11.63;;;7.93;;
74630;SDS011;63138;55.082;38.804;2023-10-31T02:38:45;12.30;;;7.87;;
74630;SDS011;63138;55.082;38.804;2023-10-31T02:41:13;12.43;;;8.32;;
74630;SDS011;63138;55.082;38.804;2023-10-31T02:43:40;13.85;;;8.63;;
74630;SDS011;63138;55.082;38.804;2023-10-31T02:46:06;13.50;;;9.00;;
74630;SDS011;63138;55.082;38.804;2023-10-31T02:48:32;13.23;;;8.87;;
74630;SDS011;63138;55.082;38.804;2023-10-31T02:51:04;14.48;;;9.30;;
74630;SDS011;63138;55.082;38.804;2023-10-31T02:53:33;13.30;;;9.00;;
74630;SDS011;63138;55.082;38.804;2023-10-31T02:56:00;16.70;;;9.88;;
74630;SDS011;63138;55.082;38.804;2023-10-31T02:58:25;13.37;;;9.10;;
74630;SDS011;63138;55.082;38.804;2023-10-31T03:01:10;12.20;;;9.35;;
74630;SDS011;63138;55.082;38.804;2023-10-31T03:03:35;14.88;;;9.52;;
74630;SDS011;63138;55.082;38.804;2023-10-31T03:06:01;15.07;;;9.20;;
74630;SDS011;63138;55.082;38.804;2023-10-31T03:08:27;13.93;;;9.40;;
74630;SDS011;63138;55.082;38.804;2023-10-31T03:10:53;14.30;;;9.70;;
74630;SDS011;63138;55.082;38.804;2023-10-31T03:13:19;12.75;;;9.98;;
74630;SDS011;63138;55.082;38.804;2023-10-31T03:15:45;13.80;;;9.43;;
74630;SDS011;63138;55.082;38.804;2023-10-31T03:18:11;14.60;;;10.25;;
74630;SDS011;63138;55.082;38.804;2023-10-31T03:20:37;14.63;;;9.32;;
74630;SDS011;63138;55.082;38.804;2023-10-31T03:23:03;14.10;;;10.40;;
74630;SDS011;63138;55.082;38.804;2023-10-31T03:25:29;18.40;;;10.27;;
74630;SDS011;63138;55.082;38.804;2023-10-31T03:27:56;15.63;;;10.07;;
74630;SDS011;63138;55.082;38.804;2023-10-31T03:30:22;17.20;;;10.90;;
74630;SDS011;63138;55.082;38.804;2023-10-31T03:32:49;17.48;;;10.23;;
74630;SDS011;63138;55.082;38.804;2023-10-31T03:35:33;14.40;;;9.80;;
74630;SDS011;63138;55.082;38.804;2023-10-31T03:37:58;19.77;;;9.37;;
74630;SDS011;63138;55.082;38.804;2023-10-31T03:40:24;14.10;;;9.07;;
74630;SDS011;63138;55.082;38.804;2023-10-31T03:42:50;13.10;;;9.40;;
74630;SDS011;63138;55.082;38.804;2023-10-31T03:45:16;14.20;;;9.67;;
74630;SDS011;63138;55.082;38.804;2023-10-31T03:47:42;15.27;;;10.15;;
74630;SDS011;63138;55.082;38.804;2023-10-31T03:50:08;16.85;;;10.32;;
74630;SDS011;63138;55.082;38.804;2023-10-31T03:52:34;14.23;;;10.63;;
74630;SDS011;63138;55.082;38.804;2023-10-31T03:55:00;15.25;;;10.73;;
74630;SDS011;63138;55.082;38.804;2023-10-31T03:57:26;16.93;;;10.47;;
74630;SDS011;63138;55.082;38.804;2023-10-31T03:59:52;17.63;;;10.82;;
74630;SDS011;63138;55.082;38.804;2023-10-31T04:02:18;19.70;;;11.90;;
74630;SDS011;63138;55.082;38.804;2023-10-31T04:04:43;18.97;;;11.23;;
74630;SDS011;63138;55.082;38.804;2023-10-31T04:07:09;17.77;;;11.32;;
74630;SDS011;63138;55.082;38.804;2023-10-31T04:09:36;23.52;;;12.43;;
74630;SDS011;63138;55.082;38.804;2023-10-31T04:12:01;18.97;;;11.83;;
74630;SDS011;63138;55.082;38.804;2023-10-31T04:14:27;17.35;;;12.10;;
74630;SDS011;63138;55.082;38.804;2023-10-31T04:16:53;18.42;;;11.77;;
74630;SDS011;63138;55.082;38.804;2023-10-31T04:19:19;20.30;;;12.23;;
74630;SDS011;63138;55.082;38.804;2023-10-31T04:21:45;20.23;;;12.20;;
74630;SDS011;63138;55.082;38.804;2023-10-31T04:27:02;20.15;;;12.65;;
74630;SDS011;63138;55.082;38.804;2023-10-31T04:29:28;21.42;;;12.57;;
74630;SDS011;63138;55.082;38.804;2023-10-31T04:31:53;21.97;;;12.23;;
74630;SDS011;63138;55.082;38.804;2023-10-31T04:34:19;20.38;;;12.30;;
74630;SDS011;63138;55.082;38.804;2023-10-31T04:36:45;22.30;;;12.10;;
74630;SDS011;63138;55.082;38.804;2023-10-31T04:39:11;21.87;;;12.70;;
74630;SDS011;63138;55.082;38.804;2023-10-31T04:41:37;20.60;;;13.20;;
74630;SDS011;63138;55.082;38.804;2023-10-31T04:44:03;23.07;;;12.43;;
74630;SDS011;63138;55.082;38.804;2023-10-31T04:46:29;20.83;;;13.13;;
74630;SDS011;63138;55.082;38.804;2023-10-31T04:48:55;20.25;;;12.85;;
74630;SDS011;63138;55.082;38.804;2023-10-31T04:51:21;24.02;;;13.55;;
74630;SDS011;63138;55.082;38.804;2023-10-31T04:53:47;22.70;;;13.03;;
74630;SDS011;63138;55.082;38.804;2023-10-31T04:56:14;26.58;;;14.20;;
74630;SDS011;63138;55.082;38.804;2023-10-31T04:58:41;26.83;;;16.33;;
74630;SDS011;63138;55.082;38.804;2023-10-31T05:01:08;31.40;;;18.85;;
74630;SDS011;63138;55.082;38.804;2023-10-31T05:03:34;32.80;;;19.70;;
74630;SDS011;63138;55.082;38.804;2023-10-31T05:06:00;32.17;;;18.85;;
74630;SDS011;63138;55.082;38.804;2023-10-31T05:08:26;28.20;;;18.17;;
74630;SDS011;63138;55.082;38.804;2023-10-31T05:10:51;26.58;;;16.75;;
74630;SDS011;63138;55.082;38.804;2023-10-31T05:13:17;28.47;;;18.77;;
74630;SDS011;63138;55.082;38.804;2023-10-31T05:15:43;27.63;;;18.67;;
74630;SDS011;63138;55.082;38.804;2023-10-31T05:18:09;26.25;;;16.42;;
74630;SDS011;63138;55.082;38.804;2023-10-31T05:20:35;16.83;;;12.63;;
74630;SDS011;63138;55.082;38.804;2023-10-31T05:23:01;14.45;;;11.73;;
74630;SDS011;63138;55.082;38.804;2023-10-31T05:25:26;14.30;;;9.03;;
74630;SDS011;63138;55.082;38.804;2023-10-31T05:27:52;10.27;;;9.20;;
74630;SDS011;63138;55.082;38.804;2023-10-31T05:30:18;25.47;;;13.60;;
74630;SDS011;63138;55.082;38.804;2023-10-31T05:32:44;32.28;;;15.48;;
74630;SDS011;63138;55.082;38.804;2023-10-31T05:35:10;27.77;;;14.63;;
74630;SDS011;63138;55.082;38.804;2023-10-31T05:37:36;22.23;;;13.70;;
74630;SDS011;63138;55.082;38.804;2023-10-31T05:40:02;36.25;;;19.40;;
74630;SDS011;63138;55.082;38.804;2023-10-31T05:42:29;34.67;;;17.70;;
74630;SDS011;63138;55.082;38.804;2023-10-31T05:44:54;31.13;;;17.10;;
74630;SDS011;63138;55.082;38.804;2023-10-31T05:47:20;29.65;;;16.13;;
74630;SDS011;63138;55.082;38.804;2023-10-31T05:49:46;21.10;;;13.80;;
74630;SDS011;63138;55.082;38.804;2023-10-31T05:52:11;24.33;;;14.52;;
74630;SDS011;63138;55.082;38.804;2023-10-31T05:54:37;22.93;;;15.20;;
74630;SDS011;63138;55.082;38.804;2023-10-31T05:57:22;19.50;;;14.00;;
74630;SDS011;63138;55.082;38.804;2023-10-31T05:59:47;23.70;;;13.60;;
74630;SDS011;63138;55.082;38.804;2023-10-31T06:02:13;24.10;;;13.63;;
74630;SDS011;63138;55.082;38.804;2023-10-31T06:04:39;19.38;;;13.48;;
74630;SDS011;63138;55.082;38.804;2023-10-31T06:07:05;20.60;;;12.93;;
74630;SDS011;63138;55.082;38.804;2023-10-31T06:09:32;17.23;;;10.93;;
74630;SDS011;63138;55.082;38.804;2023-10-31T06:12:00;15.82;;;10.35;;
74630;SDS011;63138;55.082;38.804;2023-10-31T06:14:26;15.63;;;10.63;;
74630;SDS011;63138;55.082;38.804;2023-10-31T06:16:52;12.53;;;10.50;;
74630;SDS011;63138;55.082;38.804;2023-10-31T06:19:19;10.73;;;9.63;;
74630;SDS011;63138;55.082;38.804;2023-10-31T06:21:45;12.70;;;9.88;;
74630;SDS011;63138;55.082;38.804;2023-10-31T06:24:11;11.95;;;8.35;;
74630;SDS011;63138;55.082;38.804;2023-10-31T06:26:37;10.43;;;8.57;;
74630;SDS011;63138;55.082;38.804;2023-10-31T06:29:02;12.05;;;10.10;;
74630;SDS011;63138;55.082;38.804;2023-10-31T06:31:29;14.90;;;10.70;;
74630;SDS011;63138;55.082;38.804;2023-10-31T06:33:55;17.58;;;11.07;;
74630;SDS011;63138;55.082;38.804;2023-10-31T06:36:22;15.48;;;11.40;;
74630;SDS011;63138;55.082;38.804;2023-10-31T06:38:47;17.63;;;12.60;;
74630;SDS011;63138;55.082;38.804;2023-10-31T06:41:13;17.00;;;11.60;;
74630;SDS011;63138;55.082;38.804;2023-10-31T06:43:39;17.08;;;12.88;;
74630;SDS011;63138;55.082;38.804;2023-10-31T06:46:05;18.17;;;13.17;;
74630;SDS011;63138;55.082;38.804;2023-10-31T06:48:31;19.38;;;13.25;;
74630;SDS011;63138;55.082;38.804;2023-10-31T06:50:56;18.27;;;12.13;;
74630;SDS011;63138;55.082;38.804;2023-10-31T06:53:22;18.50;;;13.70;;
74630;SDS011;63138;55.082;38.804;2023-10-31T06:55:48;18.75;;;14.90;;
74630;SDS011;63138;55.082;38.804;2023-10-31T06:58:14;19.67;;;14.67;;
74630;SDS011;63138;55.082;38.804;2023-10-31T07:00:40;16.65;;;13.50;;
74630;SDS011;63138;55.082;38.804;2023-10-31T07:03:05;14.63;;;11.53;;
74630;SDS011;63138;55.082;38.804;2023-10-31T07:05:37;14.35;;;10.50;;
74630;SDS011;63138;55.082;38.804;2023-10-31T07:08:03;13.40;;;10.00;;
74630;SDS011;63138;55.082;38.804;2023-10-31T07:10:29;18.58;;;12.23;;
74630;SDS011;63138;55.082;38.804;2023-10-31T07:12:55;20.73;;;14.70;;
74630;SDS011;63138;55.082;38.804;2023-10-31T07:15:21;24.33;;;16.58;;
74630;SDS011;63138;55.082;38.804;2023-10-31T07:17:47;30.38;;;16.83;;
74630;SDS011;63138;55.082;38.804;2023-10-31T07:20:13;23.90;;;15.00;;
74630;SDS011;63138;55.082;38.804;2023-10-31T07:22:39;24.88;;;14.10;;
74630;SDS011;63138;55.082;38.804;2023-10-31T07:25:05;20.70;;;14.07;;
74630;SDS011;63138;55.082;38.804;2023-10-31T07:27:32;17.08;;;12.05;;
74630;SDS011;63138;55.082;38.804;2023-10-31T07:29:58;15.93;;;10.50;;
74630;SDS011;63138;55.082;38.804;2023-10-31T07:32:24;13.40;;;9.70;;
74630;SDS011;63138;55.082;38.804;2023-10-31T07:34:51;15.07;;;10.70;;
74630;SDS011;63138;55.082;38.804;2023-10-31T07:37:18;14.95;;;11.43;;
74630;SDS011;63138;55.082;38.804;2023-10-31T07:39:44;14.37;;;11.00;;
74630;SDS011;63138;55.082;38.804;2023-10-31T07:42:09;12.43;;;9.63;;
74630;SDS011;63138;55.082;38.804;2023-10-31T07:44:35;12.50;;;8.88;;
74630;SDS011;63138;55.082;38.804;2023-10-31T07:47:01;13.40;;;9.57;;
74630;SDS011;63138;55.082;38.804;2023-10-31T07:49:27;13.80;;;9.18;;
74630;SDS011;63138;55.082;38.804;2023-10-31T07:51:53;10.75;;;8.27;;
74630;SDS011;63138;55.082;38.804;2023-10-31T07:54:20;19.93;;;11.63;;
74630;SDS011;63138;55.082;38.804;2023-10-31T07:56:46;20.98;;;13.07;;
74630;SDS011;63138;55.082;38.804;2023-10-31T07:59:11;19.42;;;13.05;;
74630;SDS011;63138;55.082;38.804;2023-10-31T08:01:37;12.00;;;9.63;;
74630;SDS011;63138;55.082;38.804;2023-10-31T08:04:03;13.15;;;9.82;;
74630;SDS011;63138;55.082;38.804;2023-10-31T08:06:29;11.73;;;9.70;;
74630;SDS011;63138;55.082;38.804;2023-10-31T08:08:55;10.70;;;9.60;;
74630;SDS011;63138;55.082;38.804;2023-10-31T08:11:21;11.30;;;9.70;;
74630;SDS011;63138;55.082;38.804;2023-10-31T08:13:47;9.88;;;8.38;;
74630;SDS011;63138;55.082;38.804;2023-10-31T08:16:17;8.93;;;7.00;;
74630;SDS011;63138;55.082;38.804;2023-10-31T08:18:46;11.88;;;9.40;;
74630;SDS011;63138;55.082;38.804;2023-10-31T08:21:13;12.48;;;9.45;;
74630;SDS011;63138;55.082;38.804;2023-10-31T08:23:39;11.93;;;9.27;;
74630;SDS011;63138;55.082;38.804;2023-10-31T08:26:24;11.63;;;8.88;;
74630;SDS011;63138;55.082;38.804;2023-10-31T08:28:49;12.77;;;8.73;;
74630;SDS011;63138;55.082;38.804;2023-10-31T08:31:17;11.97;;;8.97;;
74630;SDS011;63138;55.082;38.804;2023-10-31T08:33:43;12.73;;;9.30;;
74630;SDS011;63138;55.082;38.804;2023-10-31T08:36:09;11.85;;;8.75;;
74630;SDS011;63138;55.082;38.804;2023-10-31T08:38:35;11.60;;;8.30;;
74630;SDS011;63138;55.082;38.804;2023-10-31T08:41:01;11.68;;;9.23;;
74630;SDS011;63138;55.082;38.804;2023-10-31T08:43:28;13.32;;;10.15;;
74630;SDS011;63138;55.082;38.804;2023-10-31T08:45:54;11.00;;;8.70;;
74630;SDS011;63138;55.082;38.804;2023-10-31T08:48:19;13.35;;;7.45;;
74630;SDS011;63138;55.082;38.804;2023-10-31T08:50:45;14.55;;;8.30;;
74630;SDS011;63138;55.082;38.804;2023-10-31T08:53:11;12.47;;;8.47;;
74630;SDS011;63138;55.082;38.804;2023-10-31T08:55:37;11.63;;;7.68;;
74630;SDS011;63138;55.082;38.804;2023-10-31T08:58:03;12.75;;;8.98;;
74630;SDS011;63138;55.082;38.804;2023-10-31T09:00:29;12.20;;;8.20;;
74630;SDS011;63138;55.082;38.804;2023-10-31T09:02:54;15.10;;;8.50;;
74630;SDS011;63138;55.082;38.804;2023-10-31T09:05:20;11.73;;;8.17;;
74630;SDS011;63138;55.082;38.804;2023-10-31T09:07:46;11.90;;;8.13;;
74630;SDS011;63138;55.082;38.804;2023-10-31T09:10:12;12.25;;;7.13;;
74630;SDS011;63138;55.082;38.804;2023-10-31T09:12:38;11.97;;;8.27;;
74630;SDS011;63138;55.082;38.804;2023-10-31T09:15:05;11.48;;;8.10;;
74630;SDS011;63138;55.082;38.804;2023-10-31T09:17:31;14.23;;;8.65;;
74630;SDS011;63138;55.082;38.804;2023-10-31T09:19:57;12.03;;;8.37;;
74630;SDS011;63138;55.082;38.804;2023-10-31T09:22:24;11.40;;;8.75;;
74630;SDS011;63138;55.082;38.804;2023-10-31T09:24:51;10.63;;;8.35;;
74630;SDS011;63138;55.082;38.804;2023-10-31T09:27:16;11.10;;;8.73;;
74630;SDS011;63138;55.082;38.804;2023-10-31T09:29:42;12.43;;;9.68;;
74630;SDS011;63138;55.082;38.804;2023-10-31T09:32:08;11.93;;;7.50;;
74630;SDS011;63138;55.082;38.804;2023-10-31T09:34:34;10.90;;;7.83;;
74630;SDS011;63138;55.082;38.804;2023-10-31T09:37:00;9.13;;;7.15;;
74630;SDS011;63138;55.082;38.804;2023-10-31T09:39:26;9.48;;;6.40;;
74630;SDS011;63138;55.082;38.804;2023-10-31T09:41:53;10.93;;;8.00;;
74630;SDS011;63138;55.082;38.804;2023-10-31T09:44:19;15.63;;;8.82;;
74630;SDS011;63138;55.082;38.804;2023-10-31T09:49:37;9.65;;;8.18;;
74630;SDS011;63138;55.082;38.804;2023-10-31T09:52:03;11.70;;;8.37;;
74630;SDS011;63138;55.082;38.804;2023-10-31T09:54:32;12.15;;;8.25;;
74630;SDS011;63138;55.082;38.804;2023-10-31T09:56:59;11.10;;;8.15;;
74630;SDS011;63138;55.082;38.804;2023-10-31T09:59:25;10.03;;;7.93;;
74630;SDS011;63138;55.082;38.804;2023-10-31T10:01:50;9.93;;;7.63;;
74630;SDS011;63138;55.082;38.804;2023-10-31T10:04:16;10.52;;;7.78;;
74630;SDS011;63138;55.082;38.804;2023-10-31T10:06:57;10.33;;;7.10;;
74630;SDS011;63138;55.082;38.804;2023-10-31T10:09:25;10.45;;;8.07;;
74630;SDS011;63138;55.082;38.804;2023-10-31T10:11:51;10.88;;;8.70;;
74630;SDS011;63138;55.082;38.804;2023-10-31T10:14:17;9.52;;;7.07;;
74630;SDS011;63138;55.082;38.804;2023-10-31T10:16:44;10.90;;;8.10;;
74630;SDS011;63138;55.082;38.804;2023-10-31T10:19:20;9.33;;;8.10;;
74630;SDS011;63138;55.082;38.804;2023-10-31T10:21:54;12.52;;;9.15;;
74630;SDS011;63138;55.082;38.804;2023-10-31T10:24:22;10.80;;;7.55;;
74630;SDS011;63138;55.082;38.804;2023-10-31T10:26:50;11.88;;;7.20;;
74630;SDS011;63138;55.082;38.804;2023-10-31T10:29:17;8.95;;;7.90;;
74630;SDS011;63138;55.082;38.804;2023-10-31T10:31:43;9.87;;;7.03;;
74630;SDS011;63138;55.082;38.804;2023-10-31T10:34:10;9.27;;;7.63;;
74630;SDS011;63138;55.082;38.804;2023-10-31T10:36:39;11.15;;;8.20;;
74630;SDS011;63138;55.082;38.804;2023-10-31T10:39:05;9.40;;;7.03;;
74630;SDS011;63138;55.082;38.804;2023-10-31T10:41:32;7.90;;;6.37;;
74630;SDS011;63138;55.082;38.804;2023-10-31T10:44:05;9.57;;;6.68;;
74630;SDS011;63138;55.082;38.804;2023-10-31T10:46:33;9.32;;;7.40;;
74630;SDS011;63138;55.082;38.804;2023-10-31T10:49:03;8.50;;;7.03;;
74630;SDS011;63138;55.082;38.804;2023-10-31T10:54:05;11.60;;;7.40;;
74630;SDS011;63138;55.082;38.804;2023-10-31T10:56:54;10.02;;;7.13;;
74630;SDS011;63138;55.082;38.804;2023-10-31T10:59:30;11.85;;;7.15;;
74630;SDS011;63138;55.082;38.804;2023-10-31T11:02:08;10.63;;;7.25;;
74630;SDS011;63138;55.082;38.804;2023-10-31T11:04:38;10.95;;;7.30;;
74630;SDS011;63138;55.082;38.804;2023-10-31T11:07:07;12.10;;;8.27;;
74630;SDS011;63138;55.082;38.804;2023-10-31T11:09:34;10.00;;;7.95;;
74630;SDS011;63138;55.082;38.804;2023-10-31T11:12:02;9.32;;;8.27;;
74630;SDS011;63138;55.082;38.804;2023-10-31T11:14:28;11.15;;;7.65;;
74630;SDS011;63138;55.082;38.804;2023-10-31T11:16:56;11.82;;;8.65;;
74630;SDS011;63138;55.082;38.804;2023-10-31T11:19:27;10.17;;;8.00;;
74630;SDS011;63138;55.082;38.804;2023-10-31T11:21:56;10.15;;;7.63;;
74630;SDS011;63138;55.082;38.804;2023-10-31T11:24:34;10.10;;;7.35;;
74630;SDS011;63138;55.082;38.804;2023-10-31T11:27:03;11.45;;;7.43;;
74630;SDS011;63138;55.082;38.804;2023-10-31T11:29:32;10.93;;;9.30;;
74630;SDS011;63138;55.082;38.804;2023-10-31T11:32:23;10.33;;;7.70;;
74630;SDS011;63138;55.082;38.804;2023-10-31T11:34:52;11.05;;;6.40;;
74630;SDS011;63138;55.082;38.804;2023-10-31T11:37:22;9.45;;;6.70;;
74630;SDS011;63138;55.082;38.804;2023-10-31T11:42:48;9.07;;;6.28;;
74630;SDS011;63138;55.082;38.804;2023-10-31T11:48:02;10.15;;;5.93;;
74630;SDS011;63138;55.082;38.804;2023-10-31T11:50:32;9.90;;;5.25;;
74630;SDS011;63138;55.082;38.804;2023-10-31T11:52:59;8.77;;;6.10;;
74630;SDS011;63138;55.082;38.804;2023-10-31T11:55:32;9.35;;;5.57;;
74630;SDS011;63138;55.082;38.804;2023-10-31T11:58:20;7.07;;;5.37;;
74630;SDS011;63138;55.082;38.804;2023-10-31T12:00:48;7.18;;;5.50;;
74630;SDS011;63138;55.082;38.804;2023-10-31T12:03:17;8.77;;;5.75;;
74630;SDS011;63138;55.082;38.804;2023-10-31T12:05:51;8.20;;;5.78;;
74630;SDS011;63138;55.082;38.804;2023-10-31T12:08:45;7.55;;;5.60;;
74630;SDS011;63138;55.082;38.804;2023-10-31T12:11:13;8.73;;;5.20;;
74630;SDS011;63138;55.082;38.804;2023-10-31T12:16:25;8.07;;;5.70;;
74630;SDS011;63138;55.082;38.804;2023-10-31T12:18:56;8.07;;;5.15;;
74630;SDS011;63138;55.082;38.804;2023-10-31T12:24:18;6.57;;;4.77;;
74630;SDS011;63138;55.082;38.804;2023-10-31T12:26:45;7.00;;;4.93;;
74630;SDS011;63138;55.082;38.804;2023-10-31T12:31:48;7.28;;;4.90;;
74630;SDS011;63138;55.082;38.804;2023-10-31T12:34:19;8.68;;;5.65;;
74630;SDS011;63138;55.082;38.804;2023-10-31T12:36:46;9.03;;;5.10;;
74630;SDS011;63138;55.082;38.804;2023-10-31T12:39:14;8.45;;;5.40;;
74630;SDS011;63138;55.082;38.804;2023-10-31T12:41:42;6.50;;;4.88;;
74630;SDS011;63138;55.082;38.804;2023-10-31T12:44:28;6.75;;;4.93;;
74630;SDS011;63138;55.082;38.804;2023-10-31T12:46:54;6.57;;;5.05;;
74630;SDS011;63138;55.082;38.804;2023-10-31T12:49:20;7.00;;;4.97;;
74630;SDS011;63138;55.082;38.804;2023-10-31T12:54:44;6.28;;;5.47;;
74630;SDS011;63138;55.082;38.804;2023-10-31T12:57:10;8.77;;;5.73;;
74630;SDS011;63138;55.082;38.804;2023-10-31T12:59:36;11.05;;;5.20;;
74630;SDS011;63138;55.082;38.804;2023-10-31T13:02:05;6.63;;;5.15;;
74630;SDS011;63138;55.082;38.804;2023-10-31T13:04:32;8.52;;;5.50;;
74630;SDS011;63138;55.082;38.804;2023-10-31T13:07:07;10.93;;;5.93;;
74630;SDS011;63138;55.082;38.804;2023-10-31T13:09:35;8.77;;;5.70;;
74630;SDS011;63138;55.082;38.804;2023-10-31T13:12:19;7.90;;;5.57;;
74630;SDS011;63138;55.082;38.804;2023-10-31T13:14:46;7.50;;;5.70;;
74630;SDS011;63138;55.082;38.804;2023-10-31T13:17:12;7.88;;;5.63;;
74630;SDS011;63138;55.082;38.804;2023-10-31T13:19:58;6.43;;;4.80;;
74630;SDS011;63138;55.082;38.804;2023-10-31T13:22:24;7.40;;;4.63;;
74630;SDS011;63138;55.082;38.804;2023-10-31T13:24:50;8.25;;;6.22;;
74630;SDS011;63138;55.082;38.804;2023-10-31T13:27:35;7.53;;;5.78;;
74630;SDS011;63138;55.082;38.804;2023-10-31T13:30:44;7.03;;;5.10;;
74630;SDS011;63138;55.082;38.804;2023-10-31T13:35:56;8.57;;;5.07;;
74630;SDS011;63138;55.082;38.804;2023-10-31T13:41:07;13.13;;;7.57;;
74630;SDS011;63138;55.082;38.804;2023-10-31T13:43:33;10.73;;;6.67;;
74630;SDS011;63138;55.082;38.804;2023-10-31T13:46:18;11.32;;;7.43;;
74630;SDS011;63138;55.082;38.804;2023-10-31T13:48:56;12.25;;;8.00;;
74630;SDS011;63138;55.082;38.804;2023-10-31T13:51:23;11.67;;;7.43;;
74630;SDS011;63138;55.082;38.804;2023-10-31T13:53:48;11.15;;;7.05;;
74630;SDS011;63138;55.082;38.804;2023-10-31T13:56:15;11.93;;;7.90;;
74630;SDS011;63138;55.082;38.804;2023-10-31T13:58:42;16.02;;;7.45;;
74630;SDS011;63138;55.082;38.804;2023-10-31T14:01:08;12.63;;;8.10;;
74630;SDS011;63138;55.082;38.804;2023-10-31T14:03:35;10.55;;;8.02;;
74630;SDS011;63138;55.082;38.804;2023-10-31T14:06:01;11.65;;;6.63;;
74630;SDS011;63138;55.082;38.804;2023-10-31T14:08:27;17.80;;;10.23;;
74630;SDS011;63138;55.082;38.804;2023-10-31T14:10:53;14.00;;;9.50;;
74630;SDS011;63138;55.082;38.804;2023-10-31T14:13:20;16.13;;;11.10;;
74630;SDS011;63138;55.082;38.804;2023-10-31T14:15:46;19.08;;;14.68;;
74630;SDS011;63138;55.082;38.804;2023-10-31T14:18:30;15.03;;;8.87;;
74630;SDS011;63138;55.082;38.804;2023-10-31T14:20:56;22.38;;;9.13;;
74630;SDS011;63138;55.082;38.804;2023-10-31T14:26:07;18.33;;;8.60;;
74630;SDS011;63138;55.082;38.804;2023-10-31T14:28:33;21.38;;;8.98;;
74630;SDS011;63138;55.082;38.804;2023-10-31T14:30:58;24.48;;;9.18;;
74630;SDS011;63138;55.082;38.804;2023-10-31T14:33:25;21.42;;;9.30;;
74630;SDS011;63138;55.082;38.804;2023-10-31T14:35:50;18.77;;;9.87;;
74630;SDS011;63138;55.082;38.804;2023-10-31T14:38:16;22.00;;;10.57;;
74630;SDS011;63138;55.082;38.804;2023-10-31T14:40:42;20.73;;;10.97;;
74630;SDS011;63138;55.082;38.804;2023-10-31T14:43:08;19.00;;;11.65;;
74630;SDS011;63138;55.082;38.804;2023-10-31T14:45:36;23.38;;;10.80;;
74630;SDS011;63138;55.082;38.804;2023-10-31T14:48:04;20.38;;;9.32;;
74630;SDS011;63138;55.082;38.804;2023-10-31T14:50:30;22.97;;;8.30;;
74630;SDS011;63138;55.082;38.804;2023-10-31T14:53:17;21.67;;;10.15;;
74630;SDS011;63138;55.082;38.804;2023-10-31T14:55:47;18.27;;;8.52;;
74630;SDS011;63138;55.082;38.804;2023-10-31T14:58:13;14.63;;;7.57;;